sensor_id;sensor_type;location;lat;lon;timestamp;temperature;humidity
74359;DHT22;62792;46.236;6.040;2023-04-15T00:01:56;22.00;41.20
74359;DHT22;62792;46.236;6.040;2023-04-15T00:07:00;22.00;41.40
74359;DHT22;62792;46.236;6.040;2023-04-15T00:12:05;22.00;41.60
74359;DHT22;62792;46.236;6.040;2023-04-15T00:17:09;21.90;41.60
74359;DHT22;62792;46.236;6.040;2023-04-15T00:22:13;21.90;41.80
74359;DHT22;62792;46.236;6.040;2023-04-15T00:27:18;22.00;41.80
74359;DHT22;62792;46.236;6.040;2023-04-15T00:32:21;21.90;41.80
74359;DHT22;62792;46.236;6.040;2023-04-15T00:37:24;22.00;41.80
74359;DHT22;62792;46.236;6.040;2023-04-15T00:42:28;21.90;41.60
74359;DHT22;62792;46.236;6.040;2023-04-15T00:47:32;22.00;41.90
74359;DHT22;62792;46.236;6.040;2023-04-15T00:52:36;22.00;42.00
74359;DHT22;62792;46.236;6.040;2023-04-15T00:57:41;21.90;42.20
74359;DHT22;62792;46.236;6.040;2023-04-15T01:02:45;21.90;42.10
74359;DHT22;62792;46.236;6.040;2023-04-15T01:07:50;21.90;42.20
74359;DHT22;62792;46.236;6.040;2023-04-15T01:12:56;21.90;42.40
74359;DHT22;62792;46.236;6.040;2023-04-15T01:17:59;21.80;42.20
74359;DHT22;62792;46.236;6.040;2023-04-15T01:23:03;21.90;42.20
74359;DHT22;62792;46.236;6.040;2023-04-15T01:28:08;21.80;42.50
74359;DHT22;62792;46.236;6.040;2023-04-15T01:33:12;21.80;42.30
74359;DHT22;62792;46.236;6.040;2023-04-15T01:38:15;21.80;42.40
74359;DHT22;62792;46.236;6.040;2023-04-15T01:43:20;22.00;42.50
74359;DHT22;62792;46.236;6.040;2023-04-15T01:48:23;21.80;42.50
74359;DHT22;62792;46.236;6.040;2023-04-15T01:53:26;21.70;42.40
74359;DHT22;62792;46.236;6.040;2023-04-15T01:58:32;21.80;42.50
74359;DHT22;62792;46.236;6.040;2023-04-15T02:03:35;21.80;42.80
74359;DHT22;62792;46.236;6.040;2023-04-15T02:08:39;21.80;42.50
74359;DHT22;62792;46.236;6.040;2023-04-15T02:13:43;21.90;42.50
74359;DHT22;62792;46.236;6.040;2023-04-15T02:18:46;21.80;42.50
74359;DHT22;62792;46.236;6.040;2023-04-15T02:23:50;21.80;42.80
74359;DHT22;62792;46.236;6.040;2023-04-15T02:28:56;21.80;42.60
74359;DHT22;62792;46.236;6.040;2023-04-15T02:33:59;21.70;42.70
74359;DHT22;62792;46.236;6.040;2023-04-15T02:39:04;21.70;42.70
74359;DHT22;62792;46.236;6.040;2023-04-15T02:44:09;21.70;42.50
74359;DHT22;62792;46.236;6.040;2023-04-15T02:49:13;21.80;42.90
74359;DHT22;62792;46.236;6.040;2023-04-15T02:54:16;21.70;42.60
74359;DHT22;62792;46.236;6.040;2023-04-15T02:59:21;21.70;43.10
74359;DHT22;62792;46.236;6.040;2023-04-15T03:04:24;21.70;42.90
74359;DHT22;62792;46.236;6.040;2023-04-15T03:09:27;21.70;43.10
74359;DHT22;62792;46.236;6.040;2023-04-15T03:14:31;21.70;43.00
74359;DHT22;62792;46.236;6.040;2023-04-15T03:19:34;21.60;42.90
74359;DHT22;62792;46.236;6.040;2023-04-15T03:24:37;21.70;43.20
74359;DHT22;62792;46.236;6.040;2023-04-15T03:29:41;21.80;42.90
74359;DHT22;62792;46.236;6.040;2023-04-15T03:34:44;21.70;42.90
74359;DHT22;62792;46.236;6.040;2023-04-15T03:39:47;21.70;43.00
74359;DHT22;62792;46.236;6.040;2023-04-15T03:44:51;21.70;43.00
74359;DHT22;62792;46.236;6.040;2023-04-15T03:49:54;21.70;43.00
74359;DHT22;62792;46.236;6.040;2023-04-15T03:54:57;21.70;43.30
74359;DHT22;62792;46.236;6.040;2023-04-15T04:00:01;21.70;43.20
74359;DHT22;62792;46.236;6.040;2023-04-15T04:05:04;21.70;43.50
74359;DHT22;62792;46.236;6.040;2023-04-15T04:10:07;21.70;43.20
74359;DHT22;62792;46.236;6.040;2023-04-15T04:15:12;21.60;43.40
74359;DHT22;62792;46.236;6.040;2023-04-15T04:20:15;21.60;43.40
74359;DHT22;62792;46.236;6.040;2023-04-15T04:25:18;21.60;43.60
74359;DHT22;62792;46.236;6.040;2023-04-15T04:30:22;21.60;43.50
74359;DHT22;62792;46.236;6.040;2023-04-15T04:35:25;21.50;43.70
74359;DHT22;62792;46.236;6.040;2023-04-15T04:40:29;21.50;43.70
74359;DHT22;62792;46.236;6.040;2023-04-15T04:45:33;21.60;43.40
74359;DHT22;62792;46.236;6.040;2023-04-15T04:50:37;21.50;43.50
74359;DHT22;62792;46.236;6.040;2023-04-15T04:55:40;21.60;43.80
74359;DHT22;62792;46.236;6.040;2023-04-15T05:00:44;21.60;43.90
74359;DHT22;62792;46.236;6.040;2023-04-15T05:05:48;21.60;43.80
74359;DHT22;62792;46.236;6.040;2023-04-15T05:10:51;21.60;43.80
74359;DHT22;62792;46.236;6.040;2023-04-15T05:15:56;21.50;43.70
74359;DHT22;62792;46.236;6.040;2023-04-15T05:20:59;21.50;43.90
74359;DHT22;62792;46.236;6.040;2023-04-15T05:26:02;21.60;43.90
74359;DHT22;62792;46.236;6.040;2023-04-15T05:31:07;21.60;44.00
74359;DHT22;62792;46.236;6.040;2023-04-15T05:36:10;21.50;44.20
74359;DHT22;62792;46.236;6.040;2023-04-15T05:41:21;21.50;44.00
74359;DHT22;62792;46.236;6.040;2023-04-15T05:46:26;21.50;44.20
74359;DHT22;62792;46.236;6.040;2023-04-15T05:51:29;21.50;44.20
74359;DHT22;62792;46.236;6.040;2023-04-15T05:56:31;21.50;44.50
74359;DHT22;62792;46.236;6.040;2023-04-15T06:01:36;21.50;44.30
74359;DHT22;62792;46.236;6.040;2023-04-15T06:06:39;21.50;44.30
74359;DHT22;62792;46.236;6.040;2023-04-15T06:11:42;21.60;44.00
74359;DHT22;62792;46.236;6.040;2023-04-15T06:16:46;21.60;44.10
74359;DHT22;62792;46.236;6.040;2023-04-15T06:21:49;21.60;44.20
74359;DHT22;62792;46.236;6.040;2023-04-15T06:26:52;21.70;44.10
74359;DHT22;62792;46.236;6.040;2023-04-15T06:31:56;21.60;44.10
74359;DHT22;62792;46.236;6.040;2023-04-15T06:37:02;21.70;44.10
74359;DHT22;62792;46.236;6.040;2023-04-15T06:42:16;21.70;43.90
74359;DHT22;62792;46.236;6.040;2023-04-15T06:47:21;21.70;43.80
74359;DHT22;62792;46.236;6.040;2023-04-15T06:52:23;21.60;44.20
74359;DHT22;62792;46.236;6.040;2023-04-15T06:57:26;21.70;44.10
74359;DHT22;62792;46.236;6.040;2023-04-15T07:02:31;21.70;44.20
74359;DHT22;62792;46.236;6.040;2023-04-15T07:07:34;21.70;44.20
74359;DHT22;62792;46.236;6.040;2023-04-15T07:12:38;21.70;44.40
74359;DHT22;62792;46.236;6.040;2023-04-15T07:17:43;21.60;44.30
74359;DHT22;62792;46.236;6.040;2023-04-15T07:22:46;21.60;44.10
74359;DHT22;62792;46.236;6.040;2023-04-15T07:27:50;21.70;44.20
74359;DHT22;62792;46.236;6.040;2023-04-15T07:32:55;21.70;44.10
74359;DHT22;62792;46.236;6.040;2023-04-15T07:38:01;21.80;44.10
74359;DHT22;62792;46.236;6.040;2023-04-15T07:43:04;21.70;44.10
74359;DHT22;62792;46.236;6.040;2023-04-15T07:48:09;21.80;44.00
74359;DHT22;62792;46.236;6.040;2023-04-15T07:53:12;21.80;44.00
74359;DHT22;62792;46.236;6.040;2023-04-15T07:58:15;21.80;44.20
74359;DHT22;62792;46.236;6.040;2023-04-15T08:03:20;21.70;44.40
74359;DHT22;62792;46.236;6.040;2023-04-15T08:08:24;21.60;44.30
74359;DHT22;62792;46.236;6.040;2023-04-15T08:13:27;21.70;44.40
74359;DHT22;62792;46.236;6.040;2023-04-15T08:18:31;21.70;44.50
74359;DHT22;62792;46.236;6.040;2023-04-15T08:23:34;21.60;44.30
74359;DHT22;62792;46.236;6.040;2023-04-15T08:28:38;21.70;44.20
74359;DHT22;62792;46.236;6.040;2023-04-15T08:33:43;21.60;44.40
74359;DHT22;62792;46.236;6.040;2023-04-15T08:38:46;21.60;44.40
74359;DHT22;62792;46.236;6.040;2023-04-15T08:43:52;21.70;44.40
74359;DHT22;62792;46.236;6.040;2023-04-15T08:48:59;21.60;44.40
74359;DHT22;62792;46.236;6.040;2023-04-15T08:54:06;21.60;44.30
74359;DHT22;62792;46.236;6.040;2023-04-15T08:59:09;21.60;44.30
74359;DHT22;62792;46.236;6.040;2023-04-15T09:04:14;21.60;43.90
74359;DHT22;62792;46.236;6.040;2023-04-15T09:09:18;21.50;44.20
74359;DHT22;62792;46.236;6.040;2023-04-15T09:14:22;21.50;44.10
74359;DHT22;62792;46.236;6.040;2023-04-15T09:19:26;21.50;43.70
74359;DHT22;62792;46.236;6.040;2023-04-15T09:24:34;21.60;43.80
74359;DHT22;62792;46.236;6.040;2023-04-15T09:29:40;21.80;43.50
74359;DHT22;62792;46.236;6.040;2023-04-15T09:34:44;21.70;43.70
74359;DHT22;62792;46.236;6.040;2023-04-15T09:39:49;21.80;43.30
74359;DHT22;62792;46.236;6.040;2023-04-15T09:44:53;21.80;43.30
74359;DHT22;62792;46.236;6.040;2023-04-15T09:49:58;21.80;43.40
74359;DHT22;62792;46.236;6.040;2023-04-15T09:55:01;21.80;43.20
74359;DHT22;62792;46.236;6.040;2023-04-15T10:00:05;21.80;43.30
74359;DHT22;62792;46.236;6.040;2023-04-15T10:05:12;21.90;43.30
74359;DHT22;62792;46.236;6.040;2023-04-15T10:10:16;21.80;43.10
74359;DHT22;62792;46.236;6.040;2023-04-15T10:15:19;21.90;43.20
74359;DHT22;62792;46.236;6.040;2023-04-15T10:20:24;22.00;43.00
74359;DHT22;62792;46.236;6.040;2023-04-15T10:25:27;22.00;42.80
74359;DHT22;62792;46.236;6.040;2023-04-15T10:30:31;21.90;42.80
74359;DHT22;62792;46.236;6.040;2023-04-15T10:35:37;22.00;42.80
74359;DHT22;62792;46.236;6.040;2023-04-15T10:40:40;22.00;42.80
74359;DHT22;62792;46.236;6.040;2023-04-15T10:45:46;22.00;42.80
74359;DHT22;62792;46.236;6.040;2023-04-15T10:50:56;22.20;42.60
74359;DHT22;62792;46.236;6.040;2023-04-15T10:55:59;22.30;42.50
74359;DHT22;62792;46.236;6.040;2023-04-15T11:01:03;22.30;42.40
74359;DHT22;62792;46.236;6.040;2023-04-15T11:06:07;22.40;42.30
74359;DHT22;62792;46.236;6.040;2023-04-15T11:11:11;22.50;42.20
74359;DHT22;62792;46.236;6.040;2023-04-15T11:16:13;22.50;42.20
74359;DHT22;62792;46.236;6.040;2023-04-15T11:21:18;22.60;42.10
74359;DHT22;62792;46.236;6.040;2023-04-15T11:26:24;22.60;42.20
74359;DHT22;62792;46.236;6.040;2023-04-15T11:31:28;22.60;42.10
74359;DHT22;62792;46.236;6.040;2023-04-15T11:36:32;22.50;42.30
74359;DHT22;62792;46.236;6.040;2023-04-15T11:41:35;22.50;42.30
74359;DHT22;62792;46.236;6.040;2023-04-15T11:46:37;22.60;42.00
74359;DHT22;62792;46.236;6.040;2023-04-15T11:51:42;22.40;42.40
74359;DHT22;62792;46.236;6.040;2023-04-15T11:56:48;22.60;42.40
74359;DHT22;62792;46.236;6.040;2023-04-15T12:01:52;22.50;42.10
74359;DHT22;62792;46.236;6.040;2023-04-15T12:06:56;22.60;42.00
74359;DHT22;62792;46.236;6.040;2023-04-15T12:12:06;22.60;42.00
74359;DHT22;62792;46.236;6.040;2023-04-15T12:17:09;22.70;41.90
74359;DHT22;62792;46.236;6.040;2023-04-15T12:22:15;22.70;41.80
74359;DHT22;62792;46.236;6.040;2023-04-15T12:27:20;22.70;42.20
74359;DHT22;62792;46.236;6.040;2023-04-15T12:32:23;22.80;42.00
74359;DHT22;62792;46.236;6.040;2023-04-15T12:37:27;22.80;41.90
74359;DHT22;62792;46.236;6.040;2023-04-15T12:42:30;22.70;41.90
74359;DHT22;62792;46.236;6.040;2023-04-15T12:47:33;22.80;42.10
74359;DHT22;62792;46.236;6.040;2023-04-15T12:52:37;22.80;41.90
74359;DHT22;62792;46.236;6.040;2023-04-15T12:57:40;22.80;41.80
74359;DHT22;62792;46.236;6.040;2023-04-15T13:02:43;22.80;41.60
74359;DHT22;62792;46.236;6.040;2023-04-15T13:07:48;22.90;41.90
74359;DHT22;62792;46.236;6.040;2023-04-15T13:12:51;22.80;41.80
74359;DHT22;62792;46.236;6.040;2023-04-15T13:17:54;22.80;41.70
74359;DHT22;62792;46.236;6.040;2023-04-15T13:22:58;22.80;41.90
74359;DHT22;62792;46.236;6.040;2023-04-15T13:28:01;22.80;41.70
74359;DHT22;62792;46.236;6.040;2023-04-15T13:33:06;22.90;41.60
74359;DHT22;62792;46.236;6.040;2023-04-15T13:38:10;22.90;41.60
74359;DHT22;62792;46.236;6.040;2023-04-15T13:43:13;22.90;41.70
74359;DHT22;62792;46.236;6.040;2023-04-15T13:48:16;22.80;41.70
74359;DHT22;62792;46.236;6.040;2023-04-15T13:53:20;22.90;41.90
74359;DHT22;62792;46.236;6.040;2023-04-15T13:58:39;23.00;41.80
74359;DHT22;62792;46.236;6.040;2023-04-15T14:03:42;23.00;41.70
74359;DHT22;62792;46.236;6.040;2023-04-15T14:08:47;23.00;41.60
74359;DHT22;62792;46.236;6.040;2023-04-15T14:13:49;23.00;41.60
74359;DHT22;62792;46.236;6.040;2023-04-15T14:18:52;23.10;41.70
74359;DHT22;62792;46.236;6.040;2023-04-15T14:23:57;23.00;41.50
74359;DHT22;62792;46.236;6.040;2023-04-15T14:29:00;23.00;41.40
74359;DHT22;62792;46.236;6.040;2023-04-15T14:34:03;22.90;41.50
74359;DHT22;62792;46.236;6.040;2023-04-15T14:39:08;23.10;41.20
74359;DHT22;62792;46.236;6.040;2023-04-15T14:44:16;23.20;41.20
74359;DHT22;62792;46.236;6.040;2023-04-15T14:49:18;23.10;41.30
74359;DHT22;62792;46.236;6.040;2023-04-15T14:54:23;23.10;41.40
74359;DHT22;62792;46.236;6.040;2023-04-15T14:59:25;23.00;41.50
74359;DHT22;62792;46.236;6.040;2023-04-15T15:04:28;23.00;41.70
74359;DHT22;62792;46.236;6.040;2023-04-15T15:09:34;23.00;41.50
74359;DHT22;62792;46.236;6.040;2023-04-15T15:14:37;23.00;41.60
74359;DHT22;62792;46.236;6.040;2023-04-15T15:19:40;23.10;41.60
74359;DHT22;62792;46.236;6.040;2023-04-15T15:24:44;23.20;41.30
74359;DHT22;62792;46.236;6.040;2023-04-15T15:29:47;23.10;41.50
74359;DHT22;62792;46.236;6.040;2023-04-15T15:34:50;23.00;41.60
74359;DHT22;62792;46.236;6.040;2023-04-15T15:39:55;23.10;41.50
74359;DHT22;62792;46.236;6.040;2023-04-15T15:44:58;23.00;41.60
74359;DHT22;62792;46.236;6.040;2023-04-15T15:50:02;22.90;41.70
74359;DHT22;62792;46.236;6.040;2023-04-15T15:55:08;22.90;41.80
74359;DHT22;62792;46.236;6.040;2023-04-15T16:00:12;23.00;41.60
74359;DHT22;62792;46.236;6.040;2023-04-15T16:05:16;22.90;41.70
74359;DHT22;62792;46.236;6.040;2023-04-15T16:10:21;22.90;41.70
74359;DHT22;62792;46.236;6.040;2023-04-15T16:15:25;22.90;41.50
74359;DHT22;62792;46.236;6.040;2023-04-15T16:20:27;22.80;41.80
74359;DHT22;62792;46.236;6.040;2023-04-15T16:25:33;22.90;41.80
74359;DHT22;62792;46.236;6.040;2023-04-15T16:30:37;22.80;41.80
74359;DHT22;62792;46.236;6.040;2023-04-15T16:35:41;22.80;41.80
74359;DHT22;62792;46.236;6.040;2023-04-15T16:40:46;22.80;41.80
74359;DHT22;62792;46.236;6.040;2023-04-15T16:45:49;22.80;41.90
74359;DHT22;62792;46.236;6.040;2023-04-15T16:50:52;22.80;41.90
74359;DHT22;62792;46.236;6.040;2023-04-15T16:55:56;22.70;41.80
74359;DHT22;62792;46.236;6.040;2023-04-15T17:00:59;22.70;41.90
74359;DHT22;62792;46.236;6.040;2023-04-15T17:06:02;22.60;42.10
74359;DHT22;62792;46.236;6.040;2023-04-15T17:11:07;22.60;41.90
74359;DHT22;62792;46.236;6.040;2023-04-15T17:16:10;22.50;41.90
74359;DHT22;62792;46.236;6.040;2023-04-15T17:21:13;22.40;42.10
74359;DHT22;62792;46.236;6.040;2023-04-15T17:26:18;22.40;42.10
74359;DHT22;62792;46.236;6.040;2023-04-15T17:31:22;22.50;42.10
74359;DHT22;62792;46.236;6.040;2023-04-15T17:36:25;22.40;42.10
74359;DHT22;62792;46.236;6.040;2023-04-15T17:41:29;22.40;42.20
74359;DHT22;62792;46.236;6.040;2023-04-15T17:46:32;22.40;42.30
74359;DHT22;62792;46.236;6.040;2023-04-15T17:51:35;22.30;42.20
74359;DHT22;62792;46.236;6.040;2023-04-15T17:56:39;22.20;42.30
74359;DHT22;62792;46.236;6.040;2023-04-15T18:01:42;22.30;42.50
74359;DHT22;62792;46.236;6.040;2023-04-15T18:06:45;22.10;42.50
74359;DHT22;62792;46.236;6.040;2023-04-15T18:11:50;22.20;42.30
74359;DHT22;62792;46.236;6.040;2023-04-15T18:16:53;22.10;42.60
74359;DHT22;62792;46.236;6.040;2023-04-15T18:21:55;22.10;42.60
74359;DHT22;62792;46.236;6.040;2023-04-15T18:27:02;22.00;42.50
74359;DHT22;62792;46.236;6.040;2023-04-15T18:32:05;22.00;42.80
74359;DHT22;62792;46.236;6.040;2023-04-15T18:37:08;22.00;42.80
74359;DHT22;62792;46.236;6.040;2023-04-15T18:42:12;21.90;42.90
74359;DHT22;62792;46.236;6.040;2023-04-15T18:47:15;22.00;42.90
74359;DHT22;62792;46.236;6.040;2023-04-15T18:52:18;21.90;42.90
74359;DHT22;62792;46.236;6.040;2023-04-15T18:57:22;21.90;43.20
74359;DHT22;62792;46.236;6.040;2023-04-15T19:02:35;21.80;42.80
74359;DHT22;62792;46.236;6.040;2023-04-15T19:07:38;21.80;43.20
74359;DHT22;62792;46.236;6.040;2023-04-15T19:12:42;21.80;43.00
74359;DHT22;62792;46.236;6.040;2023-04-15T19:17:45;21.80;43.40
74359;DHT22;62792;46.236;6.040;2023-04-15T19:22:48;21.80;43.50
74359;DHT22;62792;46.236;6.040;2023-04-15T19:27:53;21.80;43.20
74359;DHT22;62792;46.236;6.040;2023-04-15T19:32:56;21.70;43.40
74359;DHT22;62792;46.236;6.040;2023-04-15T19:37:59;21.70;43.30
74359;DHT22;62792;46.236;6.040;2023-04-15T19:43:03;21.70;43.40
74359;DHT22;62792;46.236;6.040;2023-04-15T19:48:06;21.70;43.60
74359;DHT22;62792;46.236;6.040;2023-04-15T19:53:09;21.70;43.70
74359;DHT22;62792;46.236;6.040;2023-04-15T19:58:13;21.60;43.80
74359;DHT22;62792;46.236;6.040;2023-04-15T20:03:16;21.60;43.60
74359;DHT22;62792;46.236;6.040;2023-04-15T20:08:19;21.70;43.90
74359;DHT22;62792;46.236;6.040;2023-04-15T20:13:24;21.70;43.70
74359;DHT22;62792;46.236;6.040;2023-04-15T20:18:26;21.70;44.00
74359;DHT22;62792;46.236;6.040;2023-04-15T20:23:29;21.60;43.90
74359;DHT22;62792;46.236;6.040;2023-04-15T20:28:33;21.70;43.60
74359;DHT22;62792;46.236;6.040;2023-04-15T20:33:36;21.60;43.90
74359;DHT22;62792;46.236;6.040;2023-04-15T20:38:39;21.70;44.00
74359;DHT22;62792;46.236;6.040;2023-04-15T20:43:43;21.60;44.10
74359;DHT22;62792;46.236;6.040;2023-04-15T20:48:46;21.60;44.00
74359;DHT22;62792;46.236;6.040;2023-04-15T20:53:49;21.60;44.10
74359;DHT22;62792;46.236;6.040;2023-04-15T20:58:54;21.50;44.10
74359;DHT22;62792;46.236;6.040;2023-04-15T21:03:57;21.50;44.40
74359;DHT22;62792;46.236;6.040;2023-04-15T21:09:00;21.50;44.20
74359;DHT22;62792;46.236;6.040;2023-04-15T21:14:06;21.60;44.20
74359;DHT22;62792;46.236;6.040;2023-04-15T21:19:09;21.60;44.40
74359;DHT22;62792;46.236;6.040;2023-04-15T21:24:12;21.60;44.30
74359;DHT22;62792;46.236;6.040;2023-04-15T21:29:16;21.50;44.40
74359;DHT22;62792;46.236;6.040;2023-04-15T21:34:19;21.50;44.40
74359;DHT22;62792;46.236;6.040;2023-04-15T21:39:22;21.60;44.30
74359;DHT22;62792;46.236;6.040;2023-04-15T21:44:26;21.50;44.40
74359;DHT22;62792;46.236;6.040;2023-04-15T21:49:29;21.50;44.60
74359;DHT22;62792;46.236;6.040;2023-04-15T21:54:32;21.50;44.40
74359;DHT22;62792;46.236;6.040;2023-04-15T21:59:39;21.40;44.60
74359;DHT22;62792;46.236;6.040;2023-04-15T22:04:42;21.50;44.60
74359;DHT22;62792;46.236;6.040;2023-04-15T22:09:46;21.40;44.60
74359;DHT22;62792;46.236;6.040;2023-04-15T22:14:50;21.50;44.40
74359;DHT22;62792;46.236;6.040;2023-04-15T22:19:53;21.40;44.50
74359;DHT22;62792;46.236;6.040;2023-04-15T22:24:56;21.50;44.50
74359;DHT22;62792;46.236;6.040;2023-04-15T22:30:00;21.40;44.70
74359;DHT22;62792;46.236;6.040;2023-04-15T22:35:03;21.40;44.80
74359;DHT22;62792;46.236;6.040;2023-04-15T22:40:07;21.40;44.70
74359;DHT22;62792;46.236;6.040;2023-04-15T22:45:12;21.50;44.70
74359;DHT22;62792;46.236;6.040;2023-04-15T22:50:16;21.40;44.70
74359;DHT22;62792;46.236;6.040;2023-04-15T22:55:19;21.40;44.50
74359;DHT22;62792;46.236;6.040;2023-04-15T23:00:24;21.40;44.50
74359;DHT22;62792;46.236;6.040;2023-04-15T23:05:26;21.40;44.70
74359;DHT22;62792;46.236;6.040;2023-04-15T23:10:29;21.40;44.90
74359;DHT22;62792;46.236;6.040;2023-04-15T23:15:34;21.40;44.70
74359;DHT22;62792;46.236;6.040;2023-04-15T23:20:37;21.30;44.90
74359;DHT22;62792;46.236;6.040;2023-04-15T23:25:39;21.40;44.60
74359;DHT22;62792;46.236;6.040;2023-04-15T23:30:44;21.40;44.80
74359;DHT22;62792;46.236;6.040;2023-04-15T23:35:47;21.30;44.60
74359;DHT22;62792;46.236;6.040;2023-04-15T23:40:50;21.30;44.90
74359;DHT22;62792;46.236;6.040;2023-04-15T23:45:55;21.20;44.90
74359;DHT22;62792;46.236;6.040;2023-04-15T23:50:57;21.30;45.00
74359;DHT22;62792;46.236;6.040;2023-04-15T23:56:02;21.20;44.80
